sensor_id;sensor_type;location;lat;lon;timestamp;pressure;altitude;pressure_sealevel;temperature;humidity
45813;BME280;31519;45.408;10.962;2023-07-29T00:00:14;100433.22;;;27.15;65.29
45813;BME280;31519;45.408;10.962;2023-07-29T00:03:02;100425.84;;;27.12;65.31
45813;BME280;31519;45.408;10.962;2023-07-29T00:05:30;100437.41;;;27.19;64.02
45813;BME280;31519;45.408;10.962;2023-07-29T00:07:58;100433.91;;;27.19;62.34
45813;BME280;31519;45.408;10.962;2023-07-29T00:10:26;100435.38;;;27.23;60.73
45813;BME280;31519;45.408;10.962;2023-07-29T00:12:54;100431.63;;;27.17;60.37
45813;BME280;31519;45.408;10.962;2023-07-29T00:15:22;100431.66;;;27.14;60.35
45813;BME280;31519;45.408;10.962;2023-07-29T00:17:50;100420.38;;;27.12;61.36
45813;BME280;31519;45.408;10.962;2023-07-29T00:20:18;100411.34;;;26.92;61.57
45813;BME280;31519;45.408;10.962;2023-07-29T00:22:46;100419.66;;;27.08;60.07
45813;BME280;31519;45.408;10.962;2023-07-29T00:25:15;100411.00;;;26.89;60.25
45813;BME280;31519;45.408;10.962;2023-07-29T00:27:44;100404.75;;;27.12;59.20
45813;BME280;31519;45.408;10.962;2023-07-29T00:30:11;100403.28;;;27.27;58.88
45813;BME280;31519;45.408;10.962;2023-07-29T00:32:39;100401.16;;;27.15;58.40
45813;BME280;31519;45.408;10.962;2023-07-29T00:35:07;100409.44;;;27.12;58.22
45813;BME280;31519;45.408;10.962;2023-07-29T00:37:37;100409.69;;;26.98;58.40
45813;BME280;31519;45.408;10.962;2023-07-29T00:40:09;100402.88;;;26.82;58.97
45813;BME280;31519;45.408;10.962;2023-07-29T00:42:40;100405.53;;;26.89;58.96
45813;BME280;31519;45.408;10.962;2023-07-29T00:45:10;100411.09;;;26.82;59.64
45813;BME280;31519;45.408;10.962;2023-07-29T00:47:38;100400.88;;;26.86;59.21
45813;BME280;31519;45.408;10.962;2023-07-29T00:50:06;100403.50;;;26.70;60.09
45813;BME280;31519;45.408;10.962;2023-07-29T00:52:34;100407.56;;;26.85;59.27
45813;BME280;31519;45.408;10.962;2023-07-29T00:55:03;100409.31;;;26.96;58.90
45813;BME280;31519;45.408;10.962;2023-07-29T00:57:31;100413.81;;;26.82;59.29
45813;BME280;31519;45.408;10.962;2023-07-29T01:00:00;100414.19;;;26.61;59.72
45813;BME280;31519;45.408;10.962;2023-07-29T01:02:28;100407.84;;;26.41;60.53
45813;BME280;31519;45.408;10.962;2023-07-29T01:04:57;100413.38;;;26.07;60.72
45813;BME280;31519;45.408;10.962;2023-07-29T01:07:47;100408.47;;;26.25;60.29
45813;BME280;31519;45.408;10.962;2023-07-29T01:10:24;100408.91;;;25.90;62.26
45813;BME280;31519;45.408;10.962;2023-07-29T01:13:15;100415.69;;;26.09;62.54
45813;BME280;31519;45.408;10.962;2023-07-29T01:15:48;100417.25;;;25.79;62.75
45813;BME280;31519;45.408;10.962;2023-07-29T01:20:49;100425.94;;;25.71;66.05
45813;BME280;31519;45.408;10.962;2023-07-29T01:23:23;100421.38;;;25.61;67.29
45813;BME280;31519;45.408;10.962;2023-07-29T01:25:52;100427.91;;;25.70;67.45
45813;BME280;31519;45.408;10.962;2023-07-29T01:28:20;100424.47;;;25.63;68.54
45813;BME280;31519;45.408;10.962;2023-07-29T01:30:50;100418.56;;;25.68;68.92
45813;BME280;31519;45.408;10.962;2023-07-29T01:35:50;100431.84;;;25.66;69.16
45813;BME280;31519;45.408;10.962;2023-07-29T01:38:21;100432.03;;;25.48;70.99
45813;BME280;31519;45.408;10.962;2023-07-29T01:40:51;100435.06;;;25.53;71.53
45813;BME280;31519;45.408;10.962;2023-07-29T01:43:20;100434.94;;;25.68;70.42
45813;BME280;31519;45.408;10.962;2023-07-29T01:45:53;100434.75;;;25.82;69.70
45813;BME280;31519;45.408;10.962;2023-07-29T01:48:22;100434.88;;;25.71;70.50
45813;BME280;31519;45.408;10.962;2023-07-29T01:50:51;100430.84;;;25.83;69.68
45813;BME280;31519;45.408;10.962;2023-07-29T01:53:19;100430.63;;;26.00;68.43
45813;BME280;31519;45.408;10.962;2023-07-29T01:55:47;100421.34;;;25.94;68.32
45813;BME280;31519;45.408;10.962;2023-07-29T01:58:15;100429.97;;;26.20;67.29
45813;BME280;31519;45.408;10.962;2023-07-29T02:00:47;100419.66;;;26.04;67.35
45813;BME280;31519;45.408;10.962;2023-07-29T02:03:16;100427.72;;;25.84;67.88
45813;BME280;31519;45.408;10.962;2023-07-29T02:05:44;100422.50;;;25.63;68.71
45813;BME280;31519;45.408;10.962;2023-07-29T02:08:12;100428.19;;;25.79;68.57
45813;BME280;31519;45.408;10.962;2023-07-29T02:10:39;100428.34;;;25.95;67.74
45813;BME280;31519;45.408;10.962;2023-07-29T02:13:08;100421.34;;;25.94;68.02
45813;BME280;31519;45.408;10.962;2023-07-29T02:15:36;100418.78;;;25.80;68.92
45813;BME280;31519;45.408;10.962;2023-07-29T02:18:04;100421.63;;;25.73;69.66
45813;BME280;31519;45.408;10.962;2023-07-29T02:20:34;100422.38;;;25.74;68.94
45813;BME280;31519;45.408;10.962;2023-07-29T02:23:02;100424.53;;;25.89;68.48
45813;BME280;31519;45.408;10.962;2023-07-29T02:25:30;100428.63;;;25.74;68.54
45813;BME280;31519;45.408;10.962;2023-07-29T02:27:58;100422.75;;;25.76;68.34
45813;BME280;31519;45.408;10.962;2023-07-29T02:30:26;100413.34;;;26.11;67.12
45813;BME280;31519;45.408;10.962;2023-07-29T02:32:54;100421.41;;;26.21;66.63
45813;BME280;31519;45.408;10.962;2023-07-29T02:35:22;100422.44;;;26.00;67.97
45813;BME280;31519;45.408;10.962;2023-07-29T02:37:51;100426.78;;;25.94;68.28
45813;BME280;31519;45.408;10.962;2023-07-29T02:40:21;100421.06;;;25.85;68.93
45813;BME280;31519;45.408;10.962;2023-07-29T02:42:50;100424.81;;;25.98;67.96
45813;BME280;31519;45.408;10.962;2023-07-29T02:45:18;100416.88;;;25.77;69.01
45813;BME280;31519;45.408;10.962;2023-07-29T02:47:46;100425.00;;;25.84;68.34
45813;BME280;31519;45.408;10.962;2023-07-29T02:50:14;100427.50;;;25.68;69.63
45813;BME280;31519;45.408;10.962;2023-07-29T02:52:43;100426.91;;;25.50;70.65
45813;BME280;31519;45.408;10.962;2023-07-29T02:55:10;100434.91;;;25.34;72.12
45813;BME280;31519;45.408;10.962;2023-07-29T02:57:39;100432.34;;;25.12;72.29
45813;BME280;31519;45.408;10.962;2023-07-29T03:00:07;100437.03;;;25.15;72.40
45813;BME280;31519;45.408;10.962;2023-07-29T03:02:35;100427.19;;;25.25;73.21
45813;BME280;31519;45.408;10.962;2023-07-29T03:05:03;100433.09;;;25.16;73.06
45813;BME280;31519;45.408;10.962;2023-07-29T03:07:32;100425.41;;;25.83;70.09
45813;BME280;31519;45.408;10.962;2023-07-29T03:10:00;100423.47;;;26.10;68.43
45813;BME280;31519;45.408;10.962;2023-07-29T03:12:29;100429.31;;;26.12;67.70
45813;BME280;31519;45.408;10.962;2023-07-29T03:14:57;100427.63;;;25.91;69.13
45813;BME280;31519;45.408;10.962;2023-07-29T03:17:25;100442.09;;;25.54;70.62
45813;BME280;31519;45.408;10.962;2023-07-29T03:19:53;100448.88;;;25.36;72.13
45813;BME280;31519;45.408;10.962;2023-07-29T03:22:21;100439.97;;;25.32;71.95
45813;BME280;31519;45.408;10.962;2023-07-29T03:24:49;100435.66;;;25.72;70.31
45813;BME280;31519;45.408;10.962;2023-07-29T03:27:17;100440.16;;;25.85;69.31
45813;BME280;31519;45.408;10.962;2023-07-29T03:29:45;100450.13;;;25.99;68.54
45813;BME280;31519;45.408;10.962;2023-07-29T03:32:13;100438.19;;;25.89;69.60
45813;BME280;31519;45.408;10.962;2023-07-29T03:34:41;100449.00;;;25.96;69.09
45813;BME280;31519;45.408;10.962;2023-07-29T03:37:09;100451.75;;;25.96;68.48
45813;BME280;31519;45.408;10.962;2023-07-29T03:39:37;100445.97;;;25.53;71.18
45813;BME280;31519;45.408;10.962;2023-07-29T03:42:05;100444.53;;;25.42;71.48
45813;BME280;31519;45.408;10.962;2023-07-29T03:44:33;100439.69;;;25.60;70.74
45813;BME280;31519;45.408;10.962;2023-07-29T03:47:03;100444.78;;;25.58;70.67
45813;BME280;31519;45.408;10.962;2023-07-29T03:49:32;100446.78;;;25.54;70.78
45813;BME280;31519;45.408;10.962;2023-07-29T03:52:00;100438.16;;;25.59;69.82
45813;BME280;31519;45.408;10.962;2023-07-29T03:54:28;100439.38;;;25.54;70.60
45813;BME280;31519;45.408;10.962;2023-07-29T03:56:56;100448.41;;;25.44;70.18
45813;BME280;31519;45.408;10.962;2023-07-29T03:59:23;100449.19;;;25.45;70.32
45813;BME280;31519;45.408;10.962;2023-07-29T04:01:52;100455.38;;;25.49;70.55
45813;BME280;31519;45.408;10.962;2023-07-29T04:04:20;100448.63;;;25.23;71.87
45813;BME280;31519;45.408;10.962;2023-07-29T04:06:48;100451.88;;;25.07;72.69
45813;BME280;31519;45.408;10.962;2023-07-29T04:09:16;100463.47;;;25.19;72.24
45813;BME280;31519;45.408;10.962;2023-07-29T04:11:44;100458.78;;;25.19;73.06
45813;BME280;31519;45.408;10.962;2023-07-29T04:14:12;100464.03;;;25.40;71.75
45813;BME280;31519;45.408;10.962;2023-07-29T04:16:40;100478.03;;;25.42;71.51
45813;BME280;31519;45.408;10.962;2023-07-29T04:19:08;100485.06;;;25.40;71.14
45813;BME280;31519;45.408;10.962;2023-07-29T04:21:37;100484.47;;;25.22;73.68
45813;BME280;31519;45.408;10.962;2023-07-29T04:24:05;100480.94;;;25.25;72.62
45813;BME280;31519;45.408;10.962;2023-07-29T04:26:33;100477.84;;;25.64;71.09
45813;BME280;31519;45.408;10.962;2023-07-29T04:29:01;100478.28;;;25.58;71.38
45813;BME280;31519;45.408;10.962;2023-07-29T04:31:30;100482.25;;;25.50;72.32
45813;BME280;31519;45.408;10.962;2023-07-29T04:33:58;100478.97;;;25.70;70.86
45813;BME280;31519;45.408;10.962;2023-07-29T04:36:26;100480.56;;;25.64;70.35
45813;BME280;31519;45.408;10.962;2023-07-29T04:38:54;100480.53;;;25.67;70.65
45813;BME280;31519;45.408;10.962;2023-07-29T04:41:22;100484.47;;;25.66;70.39
45813;BME280;31519;45.408;10.962;2023-07-29T04:43:51;100488.09;;;25.49;71.02
45813;BME280;31519;45.408;10.962;2023-07-29T04:46:19;100483.38;;;25.56;71.16
45813;BME280;31519;45.408;10.962;2023-07-29T04:48:47;100482.63;;;25.49;71.64
45813;BME280;31519;45.408;10.962;2023-07-29T04:51:15;100473.41;;;25.77;70.54
45813;BME280;31519;45.408;10.962;2023-07-29T04:53:43;100478.31;;;25.92;69.46
45813;BME280;31519;45.408;10.962;2023-07-29T04:56:11;100473.19;;;25.94;69.92
45813;BME280;31519;45.408;10.962;2023-07-29T04:58:39;100482.59;;;25.90;70.26
45813;BME280;31519;45.408;10.962;2023-07-29T05:01:07;100483.25;;;25.67;71.55
45813;BME280;31519;45.408;10.962;2023-07-29T05:03:35;100482.59;;;25.93;69.88
45813;BME280;31519;45.408;10.962;2023-07-29T05:06:05;100484.94;;;26.25;68.95
45813;BME280;31519;45.408;10.962;2023-07-29T05:08:33;100492.28;;;25.98;69.70
45813;BME280;31519;45.408;10.962;2023-07-29T05:11:01;100480.25;;;25.92;70.39
45813;BME280;31519;45.408;10.962;2023-07-29T05:13:29;100487.78;;;25.81;70.43
45813;BME280;31519;45.408;10.962;2023-07-29T05:15:57;100492.78;;;25.89;70.45
45813;BME280;31519;45.408;10.962;2023-07-29T05:18:25;100503.31;;;26.18;68.64
45813;BME280;31519;45.408;10.962;2023-07-29T05:20:54;100502.28;;;26.08;69.30
45813;BME280;31519;45.408;10.962;2023-07-29T05:23:22;100501.75;;;26.20;68.53
45813;BME280;31519;45.408;10.962;2023-07-29T05:25:50;100508.19;;;26.37;67.70
45813;BME280;31519;45.408;10.962;2023-07-29T05:28:18;100507.97;;;26.78;66.53
45813;BME280;31519;45.408;10.962;2023-07-29T05:30:46;100504.84;;;26.79;65.94
45813;BME280;31519;45.408;10.962;2023-07-29T05:33:14;100511.50;;;26.78;65.94
45813;BME280;31519;45.408;10.962;2023-07-29T05:35:43;100508.97;;;26.64;66.06
45813;BME280;31519;45.408;10.962;2023-07-29T05:38:11;100507.00;;;26.65;66.41
45813;BME280;31519;45.408;10.962;2023-07-29T05:40:39;100508.75;;;26.78;65.65
45813;BME280;31519;45.408;10.962;2023-07-29T05:43:07;100510.06;;;26.70;66.70
45813;BME280;31519;45.408;10.962;2023-07-29T05:45:35;100500.50;;;27.09;65.32
45813;BME280;31519;45.408;10.962;2023-07-29T05:48:03;100508.66;;;27.12;64.84
45813;BME280;31519;45.408;10.962;2023-07-29T05:50:31;100505.22;;;27.08;65.70
45813;BME280;31519;45.408;10.962;2023-07-29T05:53:00;100512.63;;;27.08;65.95
45813;BME280;31519;45.408;10.962;2023-07-29T05:55:29;100502.19;;;27.46;64.48
45813;BME280;31519;45.408;10.962;2023-07-29T05:57:56;100496.78;;;27.42;64.00
45813;BME280;31519;45.408;10.962;2023-07-29T06:00:25;100508.59;;;27.62;63.33
45813;BME280;31519;45.408;10.962;2023-07-29T06:02:57;100500.94;;;27.54;63.73
45813;BME280;31519;45.408;10.962;2023-07-29T06:05:25;100500.84;;;27.57;63.76
45813;BME280;31519;45.408;10.962;2023-07-29T06:07:53;100497.28;;;27.80;63.93
45813;BME280;31519;45.408;10.962;2023-07-29T06:10:22;100494.69;;;27.93;62.85
45813;BME280;31519;45.408;10.962;2023-07-29T06:12:49;100503.81;;;28.06;63.29
45813;BME280;31519;45.408;10.962;2023-07-29T06:15:18;100512.44;;;27.65;63.56
45813;BME280;31519;45.408;10.962;2023-07-29T06:17:49;100509.50;;;27.75;62.89
45813;BME280;31519;45.408;10.962;2023-07-29T06:20:17;100514.56;;;27.97;62.37
45813;BME280;31519;45.408;10.962;2023-07-29T06:22:45;100513.56;;;27.44;63.66
45813;BME280;31519;45.408;10.962;2023-07-29T06:25:14;100527.31;;;27.84;62.66
45813;BME280;31519;45.408;10.962;2023-07-29T06:27:42;100530.78;;;27.45;63.35
45813;BME280;31519;45.408;10.962;2023-07-29T06:30:10;100533.66;;;28.00;62.52
45813;BME280;31519;45.408;10.962;2023-07-29T06:32:38;100531.22;;;28.26;61.50
45813;BME280;31519;45.408;10.962;2023-07-29T06:35:06;100536.25;;;27.88;61.75
45813;BME280;31519;45.408;10.962;2023-07-29T06:37:34;100541.50;;;28.38;60.15
45813;BME280;31519;45.408;10.962;2023-07-29T06:40:02;100538.78;;;28.74;59.19
45813;BME280;31519;45.408;10.962;2023-07-29T06:42:30;100537.88;;;29.13;57.60
45813;BME280;31519;45.408;10.962;2023-07-29T06:44:58;100534.34;;;29.12;58.18
45813;BME280;31519;45.408;10.962;2023-07-29T06:47:26;100534.06;;;28.38;59.40
45813;BME280;31519;45.408;10.962;2023-07-29T06:49:55;100539.59;;;28.54;59.21
45813;BME280;31519;45.408;10.962;2023-07-29T06:52:22;100546.78;;;28.64;59.45
45813;BME280;31519;45.408;10.962;2023-07-29T06:54:50;100543.63;;;28.50;59.85
45813;BME280;31519;45.408;10.962;2023-07-29T06:57:18;100542.34;;;29.23;57.63
45813;BME280;31519;45.408;10.962;2023-07-29T06:59:46;100541.97;;;29.21;58.21
45813;BME280;31519;45.408;10.962;2023-07-29T07:02:14;100542.09;;;28.65;59.07
45813;BME280;31519;45.408;10.962;2023-07-29T07:04:43;100548.13;;;28.40;60.14
45813;BME280;31519;45.408;10.962;2023-07-29T07:07:10;100548.53;;;28.39;60.76
45813;BME280;31519;45.408;10.962;2023-07-29T07:09:39;100545.34;;;27.61;63.34
45813;BME280;31519;45.408;10.962;2023-07-29T07:12:07;100546.28;;;28.70;60.42
45813;BME280;31519;45.408;10.962;2023-07-29T07:14:36;100536.44;;;28.92;60.38
45813;BME280;31519;45.408;10.962;2023-07-29T07:17:04;100537.28;;;29.05;58.36
45813;BME280;31519;45.408;10.962;2023-07-29T07:19:32;100537.31;;;27.94;63.76
45813;BME280;31519;45.408;10.962;2023-07-29T07:22:00;100534.63;;;27.70;65.51
45813;BME280;31519;45.408;10.962;2023-07-29T07:24:28;100529.91;;;28.14;64.13
45813;BME280;31519;45.408;10.962;2023-07-29T07:26:56;100528.13;;;28.59;61.13
45813;BME280;31519;45.408;10.962;2023-07-29T07:29:24;100525.66;;;28.29;61.44
45813;BME280;31519;45.408;10.962;2023-07-29T07:31:53;100522.91;;;28.29;60.79
45813;BME280;31519;45.408;10.962;2023-07-29T07:34:21;100534.22;;;28.67;60.11
45813;BME280;31519;45.408;10.962;2023-07-29T07:36:49;100522.03;;;28.16;60.65
45813;BME280;31519;45.408;10.962;2023-07-29T07:39:18;100523.78;;;28.26;61.20
45813;BME280;31519;45.408;10.962;2023-07-29T07:41:45;100517.50;;;28.06;60.59
45813;BME280;31519;45.408;10.962;2023-07-29T07:44:14;100527.25;;;28.82;58.94
45813;BME280;31519;45.408;10.962;2023-07-29T07:46:45;100519.63;;;28.90;58.29
45813;BME280;31519;45.408;10.962;2023-07-29T07:49:13;100521.41;;;29.13;57.93
45813;BME280;31519;45.408;10.962;2023-07-29T07:51:43;100524.25;;;28.77;58.72
45813;BME280;31519;45.408;10.962;2023-07-29T07:54:11;100526.00;;;29.64;55.96
45813;BME280;31519;45.408;10.962;2023-07-29T07:56:39;100528.88;;;28.96;58.50
45813;BME280;31519;45.408;10.962;2023-07-29T07:59:07;100524.75;;;28.72;58.45
45813;BME280;31519;45.408;10.962;2023-07-29T08:01:36;100523.38;;;28.44;59.01
45813;BME280;31519;45.408;10.962;2023-07-29T08:04:05;100523.00;;;28.61;59.04
45813;BME280;31519;45.408;10.962;2023-07-29T08:06:33;100523.66;;;28.85;57.82
45813;BME280;31519;45.408;10.962;2023-07-29T08:09:02;100528.38;;;28.65;59.31
45813;BME280;31519;45.408;10.962;2023-07-29T08:11:29;100527.41;;;28.39;61.83
45813;BME280;31519;45.408;10.962;2023-07-29T08:13:58;100529.75;;;28.21;61.63
45813;BME280;31519;45.408;10.962;2023-07-29T08:16:26;100527.09;;;29.05;59.83
45813;BME280;31519;45.408;10.962;2023-07-29T08:18:54;100529.81;;;28.73;60.86
45813;BME280;31519;45.408;10.962;2023-07-29T08:21:22;100529.56;;;29.00;59.52
45813;BME280;31519;45.408;10.962;2023-07-29T08:23:50;100513.66;;;28.59;59.98
45813;BME280;31519;45.408;10.962;2023-07-29T08:26:18;100518.00;;;29.08;58.68
45813;BME280;31519;45.408;10.962;2023-07-29T08:28:46;100517.19;;;29.24;58.38
45813;BME280;31519;45.408;10.962;2023-07-29T08:31:14;100513.59;;;29.11;58.34
45813;BME280;31519;45.408;10.962;2023-07-29T08:33:42;100514.06;;;29.10;57.80
45813;BME280;31519;45.408;10.962;2023-07-29T08:36:10;100509.81;;;29.54;55.88
45813;BME280;31519;45.408;10.962;2023-07-29T08:38:38;100518.19;;;29.63;56.64
45813;BME280;31519;45.408;10.962;2023-07-29T08:43:59;100512.41;;;29.73;56.02
45813;BME280;31519;45.408;10.962;2023-07-29T08:46:29;100516.50;;;29.20;57.68
45813;BME280;31519;45.408;10.962;2023-07-29T08:48:57;100513.84;;;29.78;55.83
45813;BME280;31519;45.408;10.962;2023-07-29T08:51:26;100511.44;;;29.80;55.49
45813;BME280;31519;45.408;10.962;2023-07-29T08:53:55;100508.34;;;28.68;57.90
45813;BME280;31519;45.408;10.962;2023-07-29T08:56:23;100514.81;;;29.26;57.23
45813;BME280;31519;45.408;10.962;2023-07-29T08:58:52;100512.22;;;28.35;58.04
45813;BME280;31519;45.408;10.962;2023-07-29T09:01:20;100512.31;;;28.83;58.34
45813;BME280;31519;45.408;10.962;2023-07-29T09:03:48;100512.66;;;29.34;55.51
45813;BME280;31519;45.408;10.962;2023-07-29T09:06:16;100520.66;;;28.96;56.98
45813;BME280;31519;45.408;10.962;2023-07-29T09:08:44;100520.56;;;28.99;58.61
45813;BME280;31519;45.408;10.962;2023-07-29T09:11:13;100516.00;;;29.25;57.92
45813;BME280;31519;45.408;10.962;2023-07-29T09:13:44;100507.00;;;29.41;56.73
45813;BME280;31519;45.408;10.962;2023-07-29T09:16:13;100518.31;;;29.11;58.54
45813;BME280;31519;45.408;10.962;2023-07-29T09:18:41;100504.03;;;29.93;55.53
45813;BME280;31519;45.408;10.962;2023-07-29T09:21:09;100504.81;;;30.48;53.75
45813;BME280;31519;45.408;10.962;2023-07-29T09:23:41;100506.34;;;30.49;53.85
45813;BME280;31519;45.408;10.962;2023-07-29T09:26:09;100506.75;;;30.34;54.11
45813;BME280;31519;45.408;10.962;2023-07-29T09:28:38;100506.41;;;30.20;54.93
45813;BME280;31519;45.408;10.962;2023-07-29T09:31:07;100504.56;;;29.59;57.83
45813;BME280;31519;45.408;10.962;2023-07-29T09:33:46;100503.19;;;29.96;58.10
45813;BME280;31519;45.408;10.962;2023-07-29T09:36:14;100506.88;;;29.61;58.51
45813;BME280;31519;45.408;10.962;2023-07-29T09:38:43;100509.75;;;29.41;58.37
45813;BME280;31519;45.408;10.962;2023-07-29T09:41:12;100505.59;;;29.65;57.15
45813;BME280;31519;45.408;10.962;2023-07-29T09:43:42;100502.78;;;30.23;54.98
45813;BME280;31519;45.408;10.962;2023-07-29T09:46:09;100505.44;;;30.77;53.60
45813;BME280;31519;45.408;10.962;2023-07-29T09:48:38;100499.59;;;30.37;54.49
45813;BME280;31519;45.408;10.962;2023-07-29T09:51:09;100502.38;;;30.88;52.16
45813;BME280;31519;45.408;10.962;2023-07-29T09:53:39;100499.25;;;30.22;54.19
45813;BME280;31519;45.408;10.962;2023-07-29T09:56:07;100495.94;;;29.73;56.97
45813;BME280;31519;45.408;10.962;2023-07-29T09:58:35;100491.59;;;29.88;56.79
45813;BME280;31519;45.408;10.962;2023-07-29T10:01:06;100488.16;;;30.26;55.23
45813;BME280;31519;45.408;10.962;2023-07-29T10:03:34;100487.25;;;30.04;55.55
45813;BME280;31519;45.408;10.962;2023-07-29T10:06:06;100490.16;;;30.38;54.25
45813;BME280;31519;45.408;10.962;2023-07-29T10:08:35;100487.03;;;29.69;56.22
45813;BME280;31519;45.408;10.962;2023-07-29T10:11:10;100491.72;;;29.98;55.14
45813;BME280;31519;45.408;10.962;2023-07-29T10:13:38;100488.97;;;30.64;53.76
45813;BME280;31519;45.408;10.962;2023-07-29T10:16:06;100485.97;;;31.44;50.79
45813;BME280;31519;45.408;10.962;2023-07-29T10:18:34;100473.16;;;30.56;51.61
45813;BME280;31519;45.408;10.962;2023-07-29T10:21:02;100476.22;;;31.52;50.81
45813;BME280;31519;45.408;10.962;2023-07-29T10:23:32;100474.94;;;31.44;51.49
45813;BME280;31519;45.408;10.962;2023-07-29T10:26:05;100470.81;;;30.42;54.84
45813;BME280;31519;45.408;10.962;2023-07-29T10:28:34;100478.19;;;31.30;52.41
45813;BME280;31519;45.408;10.962;2023-07-29T10:31:05;100468.75;;;31.74;51.06
45813;BME280;31519;45.408;10.962;2023-07-29T10:33:34;100474.22;;;32.48;49.72
45813;BME280;31519;45.408;10.962;2023-07-29T10:36:03;100476.63;;;32.95;47.76
45813;BME280;31519;45.408;10.962;2023-07-29T10:38:32;100476.22;;;32.57;48.38
45813;BME280;31519;45.408;10.962;2023-07-29T10:41:00;100474.88;;;30.62;53.20
45813;BME280;31519;45.408;10.962;2023-07-29T10:43:33;100467.66;;;31.15;52.49
45813;BME280;31519;45.408;10.962;2023-07-29T10:51:26;100469.78;;;31.89;50.20
45813;BME280;31519;45.408;10.962;2023-07-29T10:53:55;100460.63;;;32.23;48.81
45813;BME280;31519;45.408;10.962;2023-07-29T10:56:42;100455.81;;;32.85;47.91
45813;BME280;31519;45.408;10.962;2023-07-29T11:01:51;100468.41;;;32.16;48.41
45813;BME280;31519;45.408;10.962;2023-07-29T11:15:19;100460.06;;;31.76;48.02
45813;BME280;31519;45.408;10.962;2023-07-29T11:17:49;100464.81;;;31.41;51.08
45813;BME280;31519;45.408;10.962;2023-07-29T11:20:18;100453.41;;;30.83;53.42
45813;BME280;31519;45.408;10.962;2023-07-29T11:22:46;100458.38;;;30.75;54.03
45813;BME280;31519;45.408;10.962;2023-07-29T11:25:15;100454.44;;;31.23;53.03
45813;BME280;31519;45.408;10.962;2023-07-29T11:27:43;100451.59;;;31.70;50.39
45813;BME280;31519;45.408;10.962;2023-07-29T11:30:12;100443.72;;;31.59;50.96
45813;BME280;31519;45.408;10.962;2023-07-29T11:32:41;100439.09;;;31.78;50.08
45813;BME280;31519;45.408;10.962;2023-07-29T11:35:10;100437.69;;;31.52;49.75
45813;BME280;31519;45.408;10.962;2023-07-29T11:37:39;100437.25;;;32.06;47.92
45813;BME280;31519;45.408;10.962;2023-07-29T11:40:07;100446.59;;;31.21;48.61
45813;BME280;31519;45.408;10.962;2023-07-29T11:42:37;100431.09;;;32.33;48.19
45813;BME280;31519;45.408;10.962;2023-07-29T11:45:06;100430.69;;;32.43;46.64
45813;BME280;31519;45.408;10.962;2023-07-29T11:47:35;100428.97;;;32.77;45.32
45813;BME280;31519;45.408;10.962;2023-07-29T11:50:05;100425.84;;;31.95;47.91
45813;BME280;31519;45.408;10.962;2023-07-29T11:52:34;100428.56;;;31.86;48.65
45813;BME280;31519;45.408;10.962;2023-07-29T11:55:03;100427.47;;;33.21;47.49
45813;BME280;31519;45.408;10.962;2023-07-29T11:57:36;100419.50;;;34.44;44.30
45813;BME280;31519;45.408;10.962;2023-07-29T12:00:06;100421.72;;;34.31;43.36
45813;BME280;31519;45.408;10.962;2023-07-29T12:02:37;100431.31;;;33.24;45.65
45813;BME280;31519;45.408;10.962;2023-07-29T12:05:07;100426.34;;;33.73;44.42
45813;BME280;31519;45.408;10.962;2023-07-29T12:07:37;100424.09;;;33.26;45.29
45813;BME280;31519;45.408;10.962;2023-07-29T12:10:06;100419.78;;;33.07;45.38
45813;BME280;31519;45.408;10.962;2023-07-29T12:12:38;100427.63;;;33.27;45.38
45813;BME280;31519;45.408;10.962;2023-07-29T12:15:07;100425.06;;;32.56;47.16
45813;BME280;31519;45.408;10.962;2023-07-29T12:17:39;100415.72;;;32.53;47.14
45813;BME280;31519;45.408;10.962;2023-07-29T12:20:08;100414.34;;;32.58;46.88
45813;BME280;31519;45.408;10.962;2023-07-29T12:22:36;100416.13;;;33.28;45.84
45813;BME280;31519;45.408;10.962;2023-07-29T12:25:04;100408.28;;;33.45;45.52
45813;BME280;31519;45.408;10.962;2023-07-29T12:27:32;100409.13;;;33.78;45.23
45813;BME280;31519;45.408;10.962;2023-07-29T12:30:01;100404.72;;;33.72;45.34
45813;BME280;31519;45.408;10.962;2023-07-29T12:32:31;100412.88;;;33.48;46.33
45813;BME280;31519;45.408;10.962;2023-07-29T12:34:59;100410.72;;;32.79;46.31
45813;BME280;31519;45.408;10.962;2023-07-29T12:37:33;100404.41;;;32.70;46.28
45813;BME280;31519;45.408;10.962;2023-07-29T12:40:01;100395.38;;;32.87;47.25
45813;BME280;31519;45.408;10.962;2023-07-29T12:42:29;100399.38;;;32.95;47.65
45813;BME280;31519;45.408;10.962;2023-07-29T12:44:57;100400.00;;;33.09;46.52
45813;BME280;31519;45.408;10.962;2023-07-29T12:47:25;100392.47;;;33.00;46.03
45813;BME280;31519;45.408;10.962;2023-07-29T12:49:53;100389.53;;;33.67;45.04
45813;BME280;31519;45.408;10.962;2023-07-29T12:52:21;100388.75;;;33.76;44.34
45813;BME280;31519;45.408;10.962;2023-07-29T12:54:49;100385.38;;;34.14;41.91
45813;BME280;31519;45.408;10.962;2023-07-29T12:57:17;100384.19;;;33.46;44.53
45813;BME280;31519;45.408;10.962;2023-07-29T12:59:45;100378.84;;;33.33;42.75
45813;BME280;31519;45.408;10.962;2023-07-29T13:02:13;100371.47;;;33.99;41.87
45813;BME280;31519;45.408;10.962;2023-07-29T13:04:41;100373.41;;;33.57;42.90
45813;BME280;31519;45.408;10.962;2023-07-29T13:07:09;100360.13;;;33.19;44.53
45813;BME280;31519;45.408;10.962;2023-07-29T13:09:37;100364.69;;;33.67;42.75
45813;BME280;31519;45.408;10.962;2023-07-29T13:12:07;100362.94;;;34.21;42.82
45813;BME280;31519;45.408;10.962;2023-07-29T13:14:35;100353.84;;;33.88;42.46